createdAt,value
2024-03-12T00:00:51.457Z,138.53
2024-03-12T00:01:51.272Z,135.68
2024-03-12T00:02:51.282Z,139.10
2024-03-12T00:03:51.390Z,137.25
2024-03-12T00:04:51.382Z,140.44
2024-03-12T00:05:51.308Z,139.87
2024-03-12T00:06:51.404Z,139.21
2024-03-12T00:07:51.545Z,137.84
2024-03-12T00:08:51.393Z,139.80
2024-03-12T00:09:51.391Z,138.68
2024-03-12T00:10:51.416Z,140.07
2024-03-12T00:11:51.436Z,138.95
2024-03-12T00:12:51.542Z,137.54
2024-03-12T00:13:51.435Z,139.11
2024-03-12T00:14:51.486Z,139.91
2024-03-12T00:15:51.611Z,138.79
2024-03-12T00:16:51.498Z,139.94
2024-03-12T00:17:51.590Z,139.82
2024-03-12T00:18:51.592Z,139.03
2024-03-12T00:19:51.585Z,140.21
2024-03-12T00:20:51.646Z,140.79
2024-03-12T00:21:51.577Z,140.04
2024-03-12T00:22:51.613Z,140.75
2024-03-12T00:23:51.648Z,140.51
2024-03-12T00:24:51.659Z,138.27
2024-03-12T00:25:51.704Z,141.04
2024-03-12T00:26:51.709Z,139.91
2024-03-12T00:27:51.869Z,140.92
2024-03-12T00:28:51.751Z,140.80
2024-03-12T00:29:51.780Z,140.93
2024-03-12T00:30:51.888Z,140.21
2024-03-12T00:31:51.798Z,142.05
2024-03-12T00:32:51.815Z,140.57
2024-03-12T00:33:51.849Z,141.19
2024-03-12T00:34:51.857Z,142.89
2024-03-12T00:35:51.831Z,141.77
2024-03-12T00:36:51.889Z,140.95
2024-03-12T00:37:51.893Z,140.23
2024-03-12T00:38:51.957Z,142.17
2024-03-12T00:39:52.008Z,141.66
2024-03-12T00:40:51.968Z,142.10
2024-03-12T00:41:52.047Z,142.15
2024-03-12T00:42:52.082Z,139.26
2024-03-12T00:43:52.033Z,142.07
2024-03-12T00:44:52.050Z,144.46
2024-03-12T00:45:52.178Z,143.07
2024-03-12T00:46:52.057Z,142.38
2024-03-12T00:47:52.215Z,142.95
2024-03-12T00:48:52.185Z,142.18
2024-03-12T00:49:52.140Z,142.31
2024-03-12T00:50:52.172Z,142.56
2024-03-12T00:51:52.202Z,142.58
2024-03-12T00:52:52.188Z,142.56
2024-03-12T00:53:52.219Z,143.14
2024-03-12T00:54:52.273Z,143.59
2024-03-12T00:55:52.304Z,143.42
2024-03-12T00:56:52.285Z,144.39
2024-03-12T00:57:52.344Z,143.53
2024-03-12T00:58:52.300Z,142.70
2024-03-12T00:59:52.369Z,140.91
2024-03-12T01:00:52.498Z,141.70
2024-03-12T01:01:52.414Z,142.34
2024-03-12T01:02:52.424Z,144.91
2024-03-12T01:03:52.461Z,143.12
2024-03-12T01:04:52.458Z,143.25
2024-03-12T01:05:52.569Z,142.99
2024-03-12T01:06:52.560Z,141.72
2024-03-12T01:07:52.578Z,144.55
2024-03-12T01:08:52.591Z,143.98
2024-03-12T01:09:52.635Z,141.69
2024-03-12T01:10:52.742Z,144.89
2024-03-12T01:11:52.658Z,141.90
2024-03-12T01:12:52.771Z,143.02
2024-03-12T01:13:52.708Z,142.59
2024-03-12T01:14:52.712Z,144.14
2024-03-12T01:15:52.767Z,142.46
2024-03-12T01:16:52.857Z,144.25
2024-03-12T01:17:52.887Z,142.09
2024-03-12T01:18:52.914Z,146.06
2024-03-12T01:19:52.834Z,142.35
2024-03-12T01:20:52.909Z,144.93
2024-03-12T01:21:52.964Z,143.44
2024-03-12T01:22:52.986Z,145.23
2024-03-12T01:23:52.984Z,144.44
2024-03-12T01:24:53.117Z,144.59
2024-03-12T01:25:53.043Z,145.11
2024-03-12T01:26:53.093Z,144.07
2024-03-12T01:27:53.216Z,141.38
2024-03-12T01:28:53.120Z,145.40
2024-03-12T01:29:53.146Z,144.08
2024-03-12T01:30:53.263Z,143.33
2024-03-12T01:31:53.254Z,144.56
2024-03-12T01:32:53.311Z,143.74
2024-03-12T01:33:53.299Z,145.61
2024-03-12T01:34:53.285Z,144.57
2024-03-12T01:35:53.394Z,144.88
2024-03-12T01:36:53.419Z,145.28
2024-03-12T01:37:53.525Z,144.83
2024-03-12T01:38:53.449Z,143.60
2024-03-12T01:39:53.465Z,145.68
2024-03-12T01:40:53.531Z,143.39
2024-03-12T01:41:53.509Z,144.93
2024-03-12T01:42:53.575Z,143.73
2024-03-12T01:43:53.579Z,145.59
2024-03-12T01:44:53.596Z,145.82
2024-03-12T01:45:53.644Z,145.65
2024-03-12T01:46:53.606Z,146.21
2024-03-12T01:47:53.720Z,145.59
2024-03-12T01:48:53.745Z,143.81
2024-03-12T01:49:53.704Z,145.32
2024-03-12T01:50:53.725Z,144.96
2024-03-12T01:51:53.792Z,146.51
2024-03-12T01:52:53.844Z,146.44
2024-03-12T01:53:54.242Z,145.88
2024-03-12T01:54:53.900Z,145.75
2024-03-12T01:55:53.875Z,144.76
2024-03-12T01:56:53.858Z,145.24
2024-03-12T01:57:53.994Z,145.81
2024-03-12T01:58:53.992Z,147.42
2024-03-12T01:59:53.984Z,147.46
2024-03-12T02:00:54.252Z,145.48
2024-03-12T02:01:54.136Z,145.39
2024-03-12T02:02:54.206Z,146.80
2024-03-12T02:03:54.141Z,146.51
2024-03-12T02:04:54.179Z,146.34
2024-03-12T02:05:54.241Z,145.59
2024-03-12T02:06:54.250Z,145.36
2024-03-12T02:07:54.261Z,145.38
2024-03-12T02:08:54.325Z,146.09
2024-03-12T02:09:54.353Z,145.61
2024-03-12T02:10:54.431Z,145.87
2024-03-12T02:11:54.437Z,146.81
2024-03-12T02:12:54.496Z,142.85
2024-03-12T02:13:54.435Z,145.99
2024-03-12T02:14:54.484Z,146.34
2024-03-12T02:15:54.526Z,146.12
2024-03-12T02:16:54.586Z,146.68
2024-03-12T02:17:54.806Z,144.71
2024-03-12T02:18:54.652Z,145.52
2024-03-12T02:19:54.718Z,144.73
2024-03-12T02:20:54.712Z,146.57
2024-03-12T02:21:54.841Z,146.67
2024-03-12T02:22:54.783Z,147.06
2024-03-12T02:23:54.830Z,146.05
2024-03-12T02:24:54.900Z,147.17
2024-03-12T02:25:54.885Z,147.48
2024-03-12T02:26:54.958Z,146.73
2024-03-12T02:27:55.040Z,149.03
2024-03-12T02:28:55.002Z,146.64
2024-03-12T02:29:55.029Z,149.16
2024-03-12T02:30:55.182Z,146.79
2024-03-12T02:31:55.194Z,149.73
2024-03-12T02:32:55.143Z,147.62
2024-03-12T02:33:55.232Z,147.14
2024-03-12T02:34:55.167Z,147.80
2024-03-12T02:35:55.264Z,148.02
2024-03-12T02:36:55.308Z,147.86
2024-03-12T02:37:55.354Z,147.61
2024-03-12T02:38:55.381Z,147.93
2024-03-12T02:39:55.448Z,146.50
2024-03-12T02:40:55.453Z,148.46
2024-03-12T02:41:55.469Z,146.75
2024-03-12T02:42:55.556Z,145.97
2024-03-12T02:43:55.580Z,146.43
2024-03-12T02:44:55.584Z,146.86
2024-03-12T02:45:55.640Z,146.59
2024-03-12T02:46:55.607Z,147.41
2024-03-12T02:47:55.686Z,145.06
2024-03-12T02:48:55.760Z,147.28
2024-03-12T02:49:55.760Z,147.00
2024-03-12T02:50:55.860Z,148.18
2024-03-12T02:51:55.915Z,147.58
2024-03-12T02:52:55.884Z,148.53
2024-03-12T02:53:55.896Z,147.39
2024-03-12T02:54:55.981Z,146.22
2024-03-12T02:55:55.981Z,148.82
2024-03-12T02:56:56.032Z,146.64
2024-03-12T02:57:56.040Z,148.12
2024-03-12T02:58:56.097Z,148.81
2024-03-12T02:59:56.104Z,149.84
2024-03-12T03:00:56.207Z,146.52
2024-03-12T03:01:56.234Z,148.98
2024-03-12T03:02:56.168Z,148.06
2024-03-12T03:03:56.274Z,148.50
2024-03-12T03:04:56.300Z,148.81
2024-03-12T03:05:56.355Z,148.88
2024-03-12T03:06:56.345Z,149.18
2024-03-12T03:07:56.392Z,147.77
2024-03-12T03:08:56.429Z,148.49
2024-03-12T03:09:56.503Z,148.23
2024-03-12T03:10:56.573Z,149.25
2024-03-12T03:11:56.532Z,147.42
2024-03-12T03:12:56.549Z,147.86
2024-03-12T03:13:56.592Z,149.12
2024-03-12T03:14:56.622Z,148.84
2024-03-12T03:15:56.706Z,150.32
2024-03-12T03:16:56.680Z,149.11
2024-03-12T03:18:56.770Z,147.91
2024-03-12T03:19:56.801Z,148.00
2024-03-12T03:20:56.809Z,148.50
2024-03-12T03:21:56.867Z,147.88
2024-03-12T03:22:56.928Z,148.58
2024-03-12T03:23:56.925Z,147.38
2024-03-12T03:24:57.090Z,148.82
2024-03-12T03:25:57.006Z,148.45
2024-03-12T03:26:57.050Z,147.33
2024-03-12T03:27:57.138Z,149.06
2024-03-12T03:28:57.113Z,148.45
2024-03-12T03:29:57.156Z,148.08
2024-03-12T03:30:57.200Z,148.63
2024-03-12T03:31:57.190Z,149.39
2024-03-12T03:32:57.272Z,148.31
2024-03-12T03:33:57.342Z,147.59
2024-03-12T03:34:57.306Z,148.18
2024-03-12T03:35:57.362Z,148.11
2024-03-12T03:36:57.481Z,148.86
2024-03-12T03:37:57.412Z,148.61
2024-03-12T03:38:57.500Z,147.24
2024-03-12T03:39:57.548Z,148.63
2024-03-12T03:40:57.563Z,150.22
2024-03-12T03:41:57.724Z,148.93
2024-03-12T03:42:58.028Z,149.27
2024-03-12T03:43:57.647Z,149.82
2024-03-12T03:44:57.741Z,147.86
2024-03-12T03:45:57.758Z,148.91
2024-03-12T03:46:57.800Z,148.17
2024-03-12T03:47:57.893Z,148.95
2024-03-12T03:48:57.873Z,150.95
2024-03-12T03:49:57.932Z,148.96
2024-03-12T03:50:57.908Z,149.41
2024-03-12T03:51:57.983Z,146.32
2024-03-12T03:52:58.057Z,148.94
2024-03-12T03:53:58.136Z,148.61
2024-03-12T03:54:58.197Z,147.93
2024-03-12T03:55:58.129Z,149.13
2024-03-12T03:56:58.166Z,149.27
2024-03-12T03:57:58.262Z,147.77
2024-03-12T03:58:58.240Z,149.71
2024-03-12T03:59:58.351Z,150.12
2024-03-12T04:00:58.355Z,148.73
2024-03-12T04:01:58.378Z,147.83
2024-03-12T04:02:58.387Z,147.97
2024-03-12T04:03:58.449Z,149.41
2024-03-12T04:04:58.443Z,149.07
2024-03-12T04:05:58.496Z,151.10
2024-03-12T04:06:58.521Z,147.49
2024-03-12T04:07:58.589Z,150.31
2024-03-12T04:08:58.568Z,149.24
2024-03-12T04:09:58.703Z,149.61
2024-03-12T04:10:58.707Z,150.46
2024-03-12T04:11:58.751Z,149.65
2024-03-12T04:12:58.835Z,149.25
2024-03-12T04:13:58.792Z,148.30
2024-03-12T04:14:58.831Z,147.94
2024-03-12T04:15:58.897Z,150.32
2024-03-12T04:16:58.919Z,150.86
2024-03-12T04:17:59.079Z,150.35
2024-03-12T04:18:59.074Z,149.66
2024-03-12T04:19:59.071Z,152.56
2024-03-12T04:20:59.050Z,151.16
2024-03-12T04:21:59.074Z,150.55
2024-03-12T04:22:59.140Z,146.76
2024-03-12T04:23:59.175Z,148.83
2024-03-12T04:24:59.285Z,151.18
2024-03-12T04:25:59.275Z,151.04
2024-03-12T04:26:59.327Z,149.45
2024-03-12T04:27:59.384Z,151.64
2024-03-12T04:28:59.374Z,149.96
2024-03-12T04:29:59.424Z,151.07
2024-03-12T04:30:59.516Z,149.48
2024-03-12T04:31:59.527Z,150.61
2024-03-12T04:32:59.546Z,149.25
2024-03-12T04:33:59.678Z,149.68
2024-03-12T04:34:59.628Z,151.60
2024-03-12T04:35:59.754Z,150.40
2024-03-12T04:36:59.810Z,150.86
2024-03-12T04:37:59.750Z,149.20
2024-03-12T04:38:59.753Z,150.21
2024-03-12T04:39:59.828Z,151.35
2024-03-12T04:40:59.831Z,151.51
2024-03-12T04:42:07.130Z,50.00
2024-03-12T04:43:07.127Z,50.00
2024-03-12T04:44:07.102Z,50.00
2024-03-12T04:45:07.102Z,50.00
2024-03-12T04:46:07.174Z,50.00
2024-03-12T04:47:07.140Z,50.86
2024-03-12T04:48:07.155Z,51.11
2024-03-12T04:49:07.173Z,50.00
2024-03-12T04:50:07.095Z,52.40
2024-03-12T04:51:07.144Z,51.22
2024-03-12T04:52:07.185Z,50.00
2024-03-12T04:53:07.222Z,52.61
2024-03-12T04:54:07.172Z,51.28
2024-03-12T04:55:07.216Z,50.73
2024-03-12T04:56:07.141Z,53.71
2024-03-12T04:57:07.111Z,53.49
2024-03-12T04:58:07.205Z,52.94
2024-03-12T04:59:07.125Z,51.78
2024-03-12T05:00:07.168Z,52.29
2024-03-12T05:01:07.502Z,51.57
2024-03-12T05:02:07.161Z,49.69
2024-03-12T05:03:07.141Z,53.83
2024-03-12T05:04:15.113Z,52.43
2024-03-12T05:05:08.143Z,52.57
2024-03-12T05:06:07.147Z,52.61
2024-03-12T05:07:07.231Z,52.82
2024-03-12T05:08:07.123Z,50.42
2024-03-12T05:09:07.153Z,49.02
2024-03-12T05:10:07.172Z,51.52
2024-03-12T05:11:07.357Z,51.27
2024-03-12T05:12:07.166Z,50.33
2024-03-12T05:13:07.342Z,50.55
2024-03-12T05:14:07.214Z,51.10
2024-03-12T05:15:07.174Z,50.00
2024-03-12T05:16:07.225Z,51.17
2024-03-12T05:17:07.182Z,50.00
2024-03-12T05:18:07.235Z,50.77
2024-03-12T05:19:07.265Z,50.28
2024-03-12T05:20:07.168Z,49.56
2024-03-12T05:21:07.182Z,50.11
2024-03-12T05:22:07.225Z,50.46
2024-03-12T05:23:07.158Z,50.70
2024-03-12T05:24:07.174Z,51.21
2024-03-12T05:25:07.279Z,52.13
2024-03-12T05:26:07.164Z,51.40
2024-03-12T05:27:07.216Z,51.48
2024-03-12T05:28:07.311Z,51.07
2024-03-12T05:29:07.822Z,51.71
2024-03-12T05:30:07.282Z,49.89
2024-03-12T05:31:07.440Z,50.00
2024-03-12T05:32:07.357Z,52.86
2024-03-12T05:33:07.394Z,53.20
2024-03-12T05:34:07.514Z,51.96
2024-03-12T05:35:07.430Z,50.00
2024-03-12T05:36:07.499Z,52.71
2024-03-12T05:37:07.530Z,53.37
2024-03-12T05:38:07.475Z,51.79
2024-03-12T05:39:07.609Z,53.26
2024-03-12T05:40:07.586Z,53.99
2024-03-12T05:41:07.566Z,54.44
2024-03-12T05:42:07.643Z,55.66
2024-03-12T05:43:07.678Z,54.00
2024-03-12T05:44:07.650Z,55.52
2024-03-12T05:45:07.708Z,54.25
2024-03-12T05:46:07.852Z,55.77
2024-03-12T05:47:07.742Z,54.10
2024-03-12T05:48:07.789Z,54.13
2024-03-12T05:49:08.030Z,55.53
2024-03-12T05:50:07.778Z,57.19
2024-03-12T05:51:07.825Z,56.38
2024-03-12T05:52:07.903Z,55.47
2024-03-12T05:53:07.892Z,55.73
2024-03-12T05:54:07.877Z,56.42
2024-03-12T05:55:08.005Z,57.89
2024-03-12T05:56:07.968Z,57.09
2024-03-12T05:57:07.991Z,57.31
2024-03-12T05:58:08.029Z,57.28
2024-03-12T05:59:08.068Z,58.24
2024-03-12T06:00:08.039Z,58.30
2024-03-12T06:01:08.203Z,60.50
2024-03-12T06:02:08.146Z,57.46
2024-03-12T06:03:08.174Z,59.84
2024-03-12T06:04:08.221Z,59.37
2024-03-12T06:05:08.193Z,60.71
2024-03-12T06:06:08.195Z,59.74
2024-03-12T06:07:08.383Z,58.88
2024-03-12T06:08:08.272Z,61.15
2024-03-12T06:09:08.326Z,62.59
2024-03-12T06:10:08.365Z,62.13
2024-03-12T06:11:08.396Z,62.08
2024-03-12T06:12:08.399Z,62.29
2024-03-12T06:13:08.497Z,61.67
2024-03-12T06:14:08.445Z,62.40
2024-03-12T06:15:08.458Z,62.50
2024-03-12T06:16:08.596Z,63.29
2024-03-12T06:17:08.579Z,62.88
2024-03-12T06:18:08.613Z,61.66
2024-03-12T06:19:08.597Z,61.90
2024-03-12T06:20:11.406Z,62.10
2024-03-12T06:21:08.638Z,63.93
2024-03-12T06:22:08.636Z,64.99
2024-03-12T06:23:08.634Z,61.12
2024-03-12T06:24:08.628Z,64.34
2024-03-12T06:25:08.733Z,64.52
2024-03-12T06:26:08.616Z,64.68
2024-03-12T06:27:08.612Z,64.46
2024-03-12T06:28:08.707Z,62.29
2024-03-12T06:29:08.600Z,64.26
2024-03-12T06:30:08.628Z,62.91
2024-03-12T06:31:08.618Z,62.77
2024-03-12T06:32:08.624Z,63.59
2024-03-12T06:33:08.670Z,64.23
2024-03-12T06:34:08.812Z,65.51
2024-03-12T06:35:08.619Z,63.52
2024-03-12T06:36:08.663Z,59.92
2024-03-12T06:37:08.625Z,54.73
2024-03-12T06:38:31.212Z,50.54
2024-03-12T06:39:08.633Z,50.76
2024-03-12T06:40:08.684Z,51.32
2024-03-12T06:41:08.685Z,51.38
2024-03-12T06:42:08.650Z,50.89
2024-03-12T06:43:08.853Z,52.31
2024-03-12T06:44:08.643Z,55.79
2024-03-12T06:45:08.938Z,56.70
2024-03-12T06:46:08.664Z,57.03
2024-03-12T06:47:08.706Z,57.55
2024-03-12T06:48:08.761Z,61.74
2024-03-12T06:49:08.767Z,63.51
2024-03-12T06:50:09.209Z,67.44
2024-03-12T06:51:09.850Z,73.45
2024-03-12T06:52:08.931Z,76.51
2024-03-12T06:53:09.457Z,82.63
2024-03-12T06:54:09.466Z,88.06
2024-03-12T06:55:09.336Z,90.90
2024-03-12T06:56:08.891Z,91.77
2024-03-12T06:57:08.644Z,93.63
2024-03-12T06:58:08.742Z,96.46
2024-03-12T06:59:08.853Z,99.39
2024-03-12T07:00:08.678Z,104.60
2024-03-12T07:01:08.739Z,107.76
2024-03-12T07:02:08.767Z,108.67
2024-03-12T07:03:08.888Z,114.27
2024-03-12T07:04:08.754Z,117.25
2024-03-12T07:05:08.788Z,118.40
2024-03-12T07:06:08.763Z,123.39
2024-03-12T07:07:11.461Z,124.76
2024-03-12T07:08:08.721Z,125.59
2024-03-12T07:09:10.084Z,126.12
2024-03-12T07:10:09.315Z,126.35
2024-03-12T07:11:09.004Z,127.16
2024-03-12T07:12:09.985Z,130.22
2024-03-12T07:13:09.894Z,137.03
2024-03-12T07:14:09.353Z,149.70
2024-03-12T07:15:09.127Z,156.73
2024-03-12T07:16:09.227Z,161.79
2024-03-12T07:17:09.303Z,166.11
2024-03-12T07:18:09.565Z,167.27
2024-03-12T07:19:09.462Z,171.00
2024-03-12T07:20:10.326Z,174.46
2024-03-12T07:21:12.720Z,176.50
2024-03-12T07:22:09.579Z,175.10
2024-03-12T07:23:09.456Z,174.83
2024-03-12T07:24:09.462Z,177.74
2024-03-12T07:25:09.509Z,180.62
2024-03-12T07:26:09.846Z,174.45
2024-03-12T07:27:09.480Z,175.64
2024-03-12T07:28:09.599Z,181.83
2024-03-12T07:29:09.523Z,184.08
2024-03-12T07:30:09.548Z,185.41
2024-03-12T07:31:09.544Z,184.01
2024-03-12T07:32:09.563Z,186.12
2024-03-12T07:33:09.520Z,183.65
2024-03-12T07:34:09.633Z,185.05
2024-03-12T07:35:09.958Z,182.38
2024-03-12T07:36:09.497Z,182.54
2024-03-12T07:37:10.014Z,183.49
2024-03-12T07:38:09.528Z,184.90
2024-03-12T07:39:09.513Z,181.72
2024-03-12T07:40:09.947Z,177.91
2024-03-12T07:41:10.570Z,177.23
2024-03-12T07:42:11.559Z,178.24
2024-03-12T07:43:09.600Z,177.74
2024-03-12T07:44:09.520Z,173.34
2024-03-12T07:45:09.582Z,175.60
2024-03-12T07:46:09.553Z,173.04
2024-03-12T07:47:09.521Z,170.66
2024-03-12T07:48:12.459Z,170.25
2024-03-12T07:49:11.239Z,170.36
2024-03-12T07:50:09.568Z,170.33
2024-03-12T07:51:09.482Z,170.55
2024-03-12T07:52:09.630Z,167.90
2024-03-12T07:53:09.522Z,171.43
2024-03-12T07:54:09.845Z,168.21
2024-03-12T07:55:10.506Z,167.54
2024-03-12T07:56:09.477Z,170.13
2024-03-12T07:57:09.527Z,167.57
2024-03-12T07:58:09.557Z,169.96
2024-03-12T07:59:09.917Z,167.29
2024-03-12T08:00:09.511Z,167.00
2024-03-12T08:01:09.593Z,164.77
2024-03-12T08:02:09.549Z,163.98
2024-03-12T08:03:09.624Z,162.81
2024-03-12T08:04:10.061Z,161.84
2024-03-12T08:05:09.500Z,163.72
2024-03-12T08:06:09.549Z,162.96
2024-03-12T08:07:09.538Z,164.57
2024-03-12T08:08:09.618Z,164.75
2024-03-12T08:09:09.564Z,165.23
2024-03-12T08:10:10.506Z,165.15
2024-03-12T08:11:09.681Z,163.23
2024-03-12T08:12:10.052Z,163.67
2024-03-12T08:13:10.025Z,163.89
2024-03-12T08:14:09.577Z,163.24
2024-03-12T08:15:10.793Z,161.61
2024-03-12T08:16:09.633Z,162.56
2024-03-12T08:17:09.566Z,161.93
2024-03-12T08:18:17.186Z,160.92
2024-03-12T08:19:10.598Z,161.05
2024-03-12T08:20:09.543Z,161.50
2024-03-12T08:21:12.395Z,161.27
2024-03-12T08:22:11.500Z,163.34
2024-03-12T08:23:11.420Z,161.17
2024-03-12T08:24:09.615Z,161.48
2024-03-12T08:25:09.657Z,160.95
2024-03-12T08:26:09.589Z,161.66
2024-03-12T08:27:09.540Z,162.43
2024-03-12T08:28:24.444Z,161.27
2024-03-12T08:29:09.648Z,161.43
2024-03-12T08:30:09.549Z,161.84
2024-03-12T08:31:18.699Z,161.61
2024-03-12T08:32:10.644Z,161.38
2024-03-12T08:33:10.526Z,161.27
2024-03-12T08:34:10.495Z,157.78
2024-03-12T08:35:09.710Z,153.59
2024-03-12T08:36:09.919Z,141.41
2024-03-12T08:37:09.648Z,143.40
2024-03-12T08:38:10.815Z,138.23
2024-03-12T08:39:10.069Z,134.66
2024-03-12T08:40:09.704Z,129.03
2024-03-12T08:41:10.003Z,124.21
2024-03-12T08:42:09.760Z,124.61
2024-03-12T08:43:09.655Z,119.74
2024-03-12T08:44:09.568Z,120.46
2024-03-12T08:45:09.726Z,119.34
2024-03-12T08:46:10.131Z,121.83
2024-03-12T08:47:09.598Z,119.82
2024-03-12T08:48:10.879Z,118.97
2024-03-12T08:49:10.013Z,114.81
2024-03-12T08:50:09.794Z,117.51
2024-03-12T08:51:10.888Z,117.53
2024-03-12T08:52:10.704Z,116.51
2024-03-12T08:53:15.968Z,117.88
2024-03-12T08:54:10.470Z,117.62
2024-03-12T08:55:15.517Z,117.77
2024-03-12T08:56:11.539Z,117.64
2024-03-12T08:57:09.753Z,118.46
2024-03-12T08:58:11.442Z,119.09
2024-03-12T08:59:09.994Z,120.72
2024-03-12T09:00:09.772Z,124.04
2024-03-12T09:01:09.904Z,122.24
2024-03-12T09:02:09.828Z,121.41
2024-03-12T09:03:09.800Z,120.85
2024-03-12T09:04:11.641Z,121.58
2024-03-12T09:05:09.844Z,122.60
2024-03-12T09:06:09.830Z,119.38
2024-03-12T09:07:10.471Z,120.72
2024-03-12T09:08:09.933Z,120.84
2024-03-12T09:09:21.036Z,120.96
2024-03-12T09:10:10.531Z,121.08
2024-03-12T09:11:11.956Z,121.60
2024-03-12T09:12:09.966Z,121.01
2024-03-12T09:13:10.032Z,122.61
2024-03-12T09:14:10.187Z,121.97
2024-03-12T09:15:10.834Z,119.11
2024-03-12T09:16:10.047Z,116.48
2024-03-12T09:17:09.916Z,116.55
2024-03-12T09:18:09.960Z,114.79
2024-03-12T09:19:10.097Z,111.00
2024-03-12T09:20:09.904Z,111.91
2024-03-12T09:21:09.947Z,114.53
2024-03-12T09:22:10.029Z,113.51
2024-03-12T09:23:10.277Z,110.93
2024-03-12T09:24:09.971Z,111.05
2024-03-12T09:25:11.164Z,108.57
2024-03-12T09:26:09.990Z,112.89
2024-03-12T09:27:10.070Z,111.78
2024-03-12T09:28:10.577Z,103.51
2024-03-12T09:29:10.089Z,103.09
2024-03-12T09:30:10.095Z,98.93
2024-03-12T09:31:10.365Z,96.59
2024-03-12T09:32:10.959Z,86.42
2024-03-12T09:33:10.256Z,79.59
2024-03-12T09:34:10.275Z,68.53
2024-03-12T09:35:10.311Z,61.54
2024-03-12T09:36:10.346Z,57.09
2024-03-12T09:37:12.020Z,50.00
2024-03-12T09:38:10.727Z,48.55
2024-03-12T09:39:10.538Z,51.78
2024-03-12T09:40:10.687Z,49.67
2024-03-12T09:41:10.565Z,50.48
2024-03-12T09:42:10.537Z,50.52
2024-03-12T09:43:11.945Z,51.18
2024-03-12T09:44:10.656Z,51.71
2024-03-12T09:45:11.528Z,51.94
2024-03-12T09:46:11.085Z,55.59
2024-03-12T09:47:17.450Z,57.84
2024-03-12T09:48:10.898Z,57.92
2024-03-12T09:49:17.493Z,57.57
2024-03-12T09:50:10.761Z,58.01
2024-03-12T09:51:10.952Z,59.18
2024-03-12T09:52:13.461Z,61.48
2024-03-12T09:53:10.846Z,58.29
2024-03-12T09:54:10.855Z,60.36
2024-03-12T09:55:11.106Z,64.07
2024-03-12T09:56:11.046Z,68.87
2024-03-12T09:57:13.045Z,77.03
2024-03-12T09:58:10.997Z,58.69
2024-03-12T09:59:10.833Z,62.02
2024-03-12T10:00:12.433Z,68.40
2024-03-12T10:01:11.589Z,78.96
2024-03-12T10:02:11.000Z,91.87
2024-03-12T10:03:11.052Z,96.94
2024-03-12T10:04:11.158Z,99.46
2024-03-12T10:05:11.522Z,103.57
2024-03-12T10:06:11.234Z,106.28
2024-03-12T10:07:11.256Z,108.39
2024-03-12T10:08:11.233Z,112.71
2024-03-12T10:09:14.234Z,114.70
2024-03-12T10:10:11.556Z,115.51
2024-03-12T10:11:11.350Z,116.12
2024-03-12T10:12:11.304Z,119.85
2024-03-12T10:13:11.394Z,122.64
2024-03-12T10:14:11.963Z,123.61
2024-03-12T10:15:11.615Z,127.95
2024-03-12T10:16:11.285Z,126.18
2024-03-12T10:17:11.310Z,129.42
2024-03-12T10:18:11.391Z,129.91
2024-03-12T10:19:11.476Z,132.74
2024-03-12T10:20:12.157Z,131.34
2024-03-12T10:21:12.183Z,135.09
2024-03-12T10:22:13.373Z,134.63
2024-03-12T10:23:11.349Z,136.99
2024-03-12T10:24:11.478Z,137.21
2024-03-12T10:25:11.753Z,137.43
2024-03-12T10:26:11.479Z,143.84
2024-03-12T10:27:11.502Z,141.23
2024-03-12T10:28:11.341Z,143.85
2024-03-12T10:29:11.483Z,145.17
2024-03-12T10:30:11.276Z,145.56
2024-03-12T10:31:12.379Z,146.53
2024-03-12T10:32:11.310Z,149.70
2024-03-12T10:33:11.469Z,148.20
2024-03-12T10:34:11.533Z,154.44
2024-03-12T10:35:11.437Z,156.08
2024-03-12T10:36:17.927Z,157.55
2024-03-12T10:37:13.022Z,157.61
2024-03-12T10:38:11.465Z,157.87
2024-03-12T10:39:11.438Z,158.79
2024-03-12T10:40:12.077Z,158.41
2024-03-12T10:41:11.398Z,156.89
2024-03-12T10:42:11.433Z,157.04
2024-03-12T10:43:11.421Z,155.25
2024-03-12T10:44:11.627Z,155.06
2024-03-12T10:45:11.485Z,148.18
2024-03-12T10:46:11.521Z,150.54
2024-03-12T10:47:11.423Z,148.51
2024-03-12T10:48:11.483Z,144.14
2024-03-12T10:49:11.521Z,145.61
2024-03-12T10:50:11.510Z,141.88
2024-03-12T10:51:11.494Z,140.26
2024-03-12T10:52:12.131Z,140.62
2024-03-12T10:53:11.981Z,137.97
2024-03-12T10:54:11.409Z,136.57
2024-03-12T10:55:12.110Z,134.68
2024-03-12T10:56:14.961Z,129.50
2024-03-12T10:57:11.485Z,129.56
2024-03-12T10:58:11.522Z,127.24
2024-03-12T10:59:11.544Z,124.69
2024-03-12T11:00:11.437Z,122.21
2024-03-12T11:01:11.654Z,122.43
2024-03-12T11:02:11.429Z,118.92
2024-03-12T11:03:11.430Z,118.99
2024-03-12T11:04:11.631Z,116.98
2024-03-12T11:05:11.467Z,109.88
2024-03-12T11:06:11.859Z,110.76
2024-03-12T11:07:11.531Z,109.22
2024-03-12T11:08:11.615Z,105.37
2024-03-12T11:09:11.590Z,103.09
2024-03-12T11:10:11.643Z,101.43
2024-03-12T11:11:11.529Z,99.40
2024-03-12T11:12:11.452Z,94.67
2024-03-12T11:13:11.546Z,93.20
2024-03-12T11:14:13.005Z,95.96
2024-03-12T11:15:12.512Z,93.65
2024-03-12T11:16:13.597Z,92.71
2024-03-12T11:17:11.646Z,91.76
2024-03-12T11:18:11.820Z,91.85
2024-03-12T11:19:12.618Z,90.72
2024-03-12T11:20:11.870Z,88.89
2024-03-12T11:21:11.863Z,90.44
2024-03-12T11:22:12.095Z,91.21
2024-03-12T11:23:12.035Z,91.97
2024-03-12T11:24:14.047Z,91.33
2024-03-12T11:25:12.172Z,91.76
2024-03-12T11:26:12.320Z,89.90
2024-03-12T11:27:12.253Z,93.35
2024-03-12T11:28:12.366Z,92.93
2024-03-12T11:29:12.345Z,94.13
2024-03-12T11:30:13.172Z,94.60
2024-03-12T11:31:12.622Z,94.40
2024-03-12T11:32:13.534Z,94.78
2024-03-12T11:33:12.588Z,94.96
2024-03-12T11:34:12.785Z,93.90
2024-03-12T11:35:13.480Z,95.31
2024-03-12T11:36:12.792Z,95.24
2024-03-12T11:37:12.919Z,95.60
2024-03-12T11:38:17.299Z,94.06
2024-03-12T11:39:13.283Z,94.21
2024-03-12T11:40:12.958Z,94.81
2024-03-12T11:41:12.921Z,95.40
2024-03-12T11:42:17.540Z,96.03
2024-03-12T11:43:13.197Z,94.23
2024-03-12T11:44:12.970Z,94.91
2024-03-12T11:45:12.920Z,95.73
2024-03-12T11:46:13.098Z,96.27
2024-03-12T11:47:12.983Z,99.29
2024-03-12T11:48:13.049Z,98.80
2024-03-12T11:49:14.675Z,99.32
2024-03-12T11:50:12.922Z,100.03
2024-03-12T11:51:13.540Z,99.54
2024-03-12T11:52:13.030Z,98.21
2024-03-12T11:53:13.015Z,99.74
2024-03-12T11:54:13.648Z,98.12
2024-03-12T11:55:13.771Z,98.86
2024-03-12T11:56:12.937Z,102.05
2024-03-12T11:57:13.269Z,100.12
2024-03-12T11:58:13.209Z,98.43
2024-03-12T11:59:19.895Z,100.49
2024-03-12T12:00:16.372Z,100.57
2024-03-12T12:01:13.205Z,100.92
2024-03-12T12:02:13.341Z,102.09
2024-03-12T12:03:13.487Z,103.35
2024-03-12T12:04:13.225Z,105.62
2024-03-12T12:05:13.196Z,107.96
2024-03-12T12:06:13.163Z,109.39
2024-03-12T12:07:13.574Z,109.79
2024-03-12T12:08:13.975Z,110.19
2024-03-12T12:09:13.215Z,111.36
2024-03-12T12:10:13.325Z,108.56
2024-03-12T12:11:13.274Z,112.57
2024-03-12T12:12:13.267Z,110.39
2024-03-12T12:13:13.655Z,115.15
2024-03-12T12:14:13.171Z,116.23
2024-03-12T12:15:13.245Z,115.82
2024-03-12T12:16:13.344Z,116.28
2024-03-12T12:17:13.177Z,114.40
2024-03-12T12:18:13.550Z,113.17
2024-03-12T12:19:18.508Z,116.41
2024-03-12T12:20:14.229Z,116.50
2024-03-12T12:21:13.199Z,116.79
2024-03-12T12:22:14.046Z,117.28
2024-03-12T12:23:13.182Z,116.73
2024-03-12T12:24:13.220Z,118.16
2024-03-12T12:25:13.316Z,118.08
2024-03-12T12:26:13.184Z,118.31
2024-03-12T12:27:13.249Z,120.18
2024-03-12T12:28:13.341Z,121.36
2024-03-12T12:29:13.365Z,118.13
2024-03-12T12:30:13.436Z,121.00
2024-03-12T12:31:13.595Z,121.00
2024-03-12T12:32:13.676Z,120.24
2024-03-12T12:33:13.606Z,121.25
2024-03-12T12:34:14.189Z,119.21
2024-03-12T12:35:13.775Z,119.90
2024-03-12T12:36:13.822Z,120.88
2024-03-12T12:37:13.858Z,122.35